Time;durP1;ratioP1;P1;durP2;ratioP2;P2;SDS_P1;SDS_P2;PMS_P1;PMS_P2;Temp;Humidity;BMP_temperature;BMP_pressure;BME280_temperature;BME280_humidity;BME280_pressure;Samples;Min_cycle;Max_cycle;Signal;HPM_P1;HPM_P2
2020/12/30 00:02:16;;;;;;;;;;;7.00;77.90;;;;;;5010517;28;120337;-77
2020/12/30 00:04:42;;;;;;;;;;;7.00;77.90;;;;;;4994295;28;118301;-77
2020/12/30 00:07:07;;;;;;;;;;;7.00;77.90;;;;;;4994783;28;117340;-78
2020/12/30 00:09:33;;;;;;;;;;;7.00;77.90;;;;;;5011704;28;117931;-77
2020/12/30 00:11:58;;;;;;;;;;;7.00;77.90;;;;;;5009788;28;119661;-77
2020/12/30 00:14:24;;;;;;;;;;;7.00;77.90;;;;;;4993060;28;118432;-78
2020/12/30 00:16:49;;;;;;;;;;;7.00;77.90;;;;;;5011244;28;117858;-78
2020/12/30 00:19:15;;;;;;;;;;;7.00;77.90;;;;;;5011814;28;117519;-77
2020/12/30 00:21:40;;;;;;;;;;;7.00;77.90;;;;;;4993471;28;119016;-77
2020/12/30 00:24:06;;;;;;;;;;;7.00;77.90;;;;;;5010509;28;117428;-78
2020/12/30 00:26:31;;;;;;;;;;;7.00;77.80;;;;;;4994671;28;117418;-78
2020/12/30 00:28:57;;;;;;;;;;;7.00;77.90;;;;;;5012252;28;117480;-77
2020/12/30 00:31:22;;;;;;;;;;;7.00;77.80;;;;;;5011031;28;119959;-77
2020/12/30 00:33:48;;;;;;;;;;;7.00;77.80;;;;;;5011225;28;117661;-77
2020/12/30 00:36:13;;;;;;;;;;;7.00;77.80;;;;;;5011799;28;117673;-77
2020/12/30 00:38:41;;;;;;;;;;;7.00;77.90;;;;;;4994954;27;117398;-77
2020/12/30 00:41:11;;;;;;;;;;;7.00;77.90;;;;;;5011710;28;118790;-77
2020/12/30 00:43:38;;;;;;;;;;;7.00;77.80;;;;;;5011279;28;118011;-77
2020/12/30 00:46:03;;;;;;;;;;;7.00;77.80;;;;;;4995836;28;117483;-77
2020/12/30 00:48:29;;;;;;;;;;;7.00;77.80;;;;;;5011669;27;117373;-77
2020/12/30 00:50:54;;;;;;;;;;;7.00;77.80;;;;;;5012028;28;118423;-77
2020/12/30 00:53:20;;;;;;;;;;;7.00;77.80;;;;;;5012520;28;120302;-77
2020/12/30 00:55:45;;;;;;;;;;;7.00;77.80;;;;;;4996615;28;117327;-77
2020/12/30 00:58:11;;;;;;;;;;;7.00;77.80;;;;;;5014035;28;117298;-77
2020/12/30 01:00:36;;;;;;;;;;;7.00;77.80;;;;;;4995366;28;119018;-77
2020/12/30 01:03:02;;;;;;;;;;;7.00;77.80;;;;;;5012657;28;119027;-77
2020/12/30 01:05:27;;;;;;;;;;;6.90;77.70;;;;;;5014542;28;117313;-77
2020/12/30 01:07:53;;;;;;;;;;;7.00;77.80;;;;;;5014875;28;117886;-77
2020/12/30 01:10:18;;;;;;;;;;;7.00;77.80;;;;;;4995027;28;121312;-77
2020/12/30 01:12:44;;;;;;;;;;;7.00;77.80;;;;;;5011221;28;118477;-78
2020/12/30 01:15:09;;;;;;;;;;;7.00;77.80;;;;;;5014398;28;117532;-77
2020/12/30 01:17:35;;;;;;;;;;;7.00;77.80;;;;;;5014812;28;117521;-77
2020/12/30 01:20:00;;;;;;;;;;;7.00;77.80;;;;;;4996723;28;119348;-77
2020/12/30 01:22:26;;;;;;;;;;;7.00;77.80;;;;;;5015860;28;119695;-77
2020/12/30 01:24:51;;;;;;;;;;;7.00;77.80;;;;;;4993124;28;117485;-77
2020/12/30 01:27:17;;;;;;;;;;;7.00;77.80;;;;;;5027541;28;117533;-77
2020/12/30 01:29:42;;;;;;;;;;;6.90;77.70;;;;;;5010280;28;118439;-77
2020/12/30 01:32:08;;;;;;;;;;;7.00;77.80;;;;;;5009849;28;118031;-78
2020/12/30 01:34:34;;;;;;;;;;;7.00;77.80;;;;;;5010563;28;117496;-78
2020/12/30 01:37:00;;;;;;;;;;;7.00;77.80;;;;;;4993938;28;117704;-78
2020/12/30 01:39:25;;;;;;;;;;;7.00;77.80;;;;;;5010729;28;118328;-78
2020/12/30 01:41:51;;;;;;;;;;;7.00;77.80;;;;;;5009865;28;118606;-78
2020/12/30 01:44:16;;;;;;;;;;;7.00;77.80;;;;;;5011256;28;117290;-78
2020/12/30 01:46:43;;;;;;;;;;;7.00;77.80;;;;;;5012097;28;117373;-78
2020/12/30 01:49:12;;;;;;;;;;;7.00;77.80;;;;;;4993795;28;119738;-78
2020/12/30 01:51:38;;;;;;;;;;;6.90;77.70;;;;;;5010578;28;117650;-77
2020/12/30 01:54:04;;;;;;;;;;;7.00;77.80;;;;;;4995706;28;117741;-77
2020/12/30 01:56:30;;;;;;;;;;;7.00;77.80;;;;;;5012457;28;117856;-78
2020/12/30 01:58:56;;;;;;;;;;;7.00;77.80;;;;;;5010870;28;119615;-77
2020/12/30 02:01:22;;;;;;;;;;;7.00;77.80;;;;;;5026670;28;118648;-77
2020/12/30 02:03:48;;;;;;;;;;;7.00;77.80;;;;;;5012082;28;117350;-77
2020/12/30 02:06:15;;;;;;;;;;;7.00;77.80;;;;;;5012135;28;117750;-77
2020/12/30 02:08:41;;;;;;;;;;;6.90;77.70;;;;;;5011626;28;118561;-77
2020/12/30 02:11:06;;;;;;;;;;;7.00;77.80;;;;;;5012621;28;117467;-77
2020/12/30 02:13:32;;;;;;;;;;;7.00;77.80;;;;;;5013244;28;117432;-77
2020/12/30 02:15:59;;;;;;;;;;;6.90;77.70;;;;;;5012859;28;117496;-77
2020/12/30 02:18:24;;;;;;;;;;;7.00;77.80;;;;;;5012588;28;120261;-77
2020/12/30 02:20:50;;;;;;;;;;;6.90;77.70;;;;;;4997211;28;117384;-77
2020/12/30 02:23:15;;;;;;;;;;;6.90;77.70;;;;;;5010095;28;117308;-77
2020/12/30 02:25:41;;;;;;;;;;;6.90;77.70;;;;;;5008942;28;117797;-77
2020/12/30 02:28:06;;;;;;;;;;;6.90;77.80;;;;;;4991037;28;119330;-77
2020/12/30 02:30:32;;;;;;;;;;;6.90;77.70;;;;;;5008287;28;117407;-77
2020/12/30 02:32:57;;;;;;;;;;;6.90;77.70;;;;;;4992103;28;117518;-77
2020/12/30 02:35:23;;;;;;;;;;;6.90;77.70;;;;;;4991802;28;117415;-77
2020/12/30 02:37:49;;;;;;;;;;;6.90;77.70;;;;;;5009162;28;117336;-78
2020/12/30 02:40:14;;;;;;;;;;;6.90;77.70;;;;;;4991570;28;118634;-77
2020/12/30 02:42:40;;;;;;;;;;;6.90;77.70;;;;;;5009111;28;117495;-77
2020/12/30 02:45:06;;;;;;;;;;;6.90;77.70;;;;;;5028661;28;117509;-77
2020/12/30 02:47:32;;;;;;;;;;;6.90;77.70;;;;;;5027503;28;118359;-77
2020/12/30 02:49:57;;;;;;;;;;;6.90;77.70;;;;;;4991229;28;117827;-77
2020/12/30 02:52:23;;;;;;;;;;;6.90;77.70;;;;;;5010102;28;117477;-77
2020/12/30 02:54:48;;;;;;;;;;;7.00;77.80;;;;;;5027276;28;117429;-77
2020/12/30 02:57:14;;;;;;;;;;;6.90;77.70;;;;;;5009993;28;118515;-77
2020/12/30 02:59:39;;;;;;;;;;;7.00;77.70;;;;;;5009344;28;118345;-77
2020/12/30 03:02:05;;;;;;;;;;;7.00;77.70;;;;;;5011159;28;116894;-77
2020/12/30 03:04:30;;;;;;;;;;;7.00;77.70;;;;;;5010958;28;117250;-77
2020/12/30 03:06:56;;;;;;;;;;;6.90;77.60;;;;;;4992836;28;118761;-77
2020/12/30 03:09:21;;;;;;;;;;;7.00;77.70;;;;;;5010062;28;117665;-77
2020/12/30 03:11:48;;;;;;;;;;;7.00;77.70;;;;;;4994500;28;117474;-77
2020/12/30 03:14:13;;;;;;;;;;;7.00;77.70;;;;;;5011658;28;117773;-77
2020/12/30 03:16:39;;;;;;;;;;;7.00;77.70;;;;;;5010875;28;118949;-77
2020/12/30 03:19:04;;;;;;;;;;;7.00;77.60;;;;;;5015338;28;117952;-77
2020/12/30 03:21:29;;;;;;;;;;;7.00;77.70;;;;;;5011131;28;117409;-78
2020/12/30 03:23:55;;;;;;;;;;;7.00;77.60;;;;;;4994716;28;117895;-78
2020/12/30 03:26:20;;;;;;;;;;;7.00;77.70;;;;;;5010349;28;119194;-78
2020/12/30 03:28:46;;;;;;;;;;;7.00;77.60;;;;;;4993734;28;120136;-77
2020/12/30 03:31:11;;;;;;;;;;;7.00;77.60;;;;;;5029306;28;117614;-77
2020/12/30 03:33:37;;;;;;;;;;;7.00;77.60;;;;;;5012358;28;117503;-77
2020/12/30 03:36:02;;;;;;;;;;;6.90;78.20;;;;;;5010348;28;119200;-77
2020/12/30 03:38:28;;;;;;;;;;;7.00;77.70;;;;;;4990653;28;118817;-77
2020/12/30 03:40:53;;;;;;;;;;;6.90;77.60;;;;;;4992529;28;117522;-77
2020/12/30 03:43:19;;;;;;;;;;;7.00;77.60;;;;;;4993409;28;117504;-77
2020/12/30 03:45:44;;;;;;;;;;;6.90;77.60;;;;;;4992288;28;119073;-77
2020/12/30 03:48:10;;;;;;;;;;;7.00;77.70;;;;;;5028504;28;119787;-77
2020/12/30 03:50:35;;;;;;;;;;;7.00;77.60;;;;;;5012464;28;117742;-77
2020/12/30 03:53:01;;;;;;;;;;;7.00;77.60;;;;;;5013205;28;117373;-77
2020/12/30 03:55:26;;;;;;;;;;;6.90;77.60;;;;;;5012168;28;120261;-77
2020/12/30 03:57:52;;;;;;;;;;;6.90;77.60;;;;;;5011722;28;118538;-77
2020/12/30 04:00:17;;;;;;;;;;;6.90;77.60;;;;;;5013153;28;117391;-77
2020/12/30 04:02:43;;;;;;;;;;;7.00;77.70;;;;;;5013271;28;117782;-77
2020/12/30 04:05:08;;;;;;;;;;;7.00;78.20;;;;;;5011864;28;117337;-77
2020/12/30 04:07:34;;;;;;;;;;;6.90;77.60;;;;;;5030641;28;117739;-77
2020/12/30 04:09:59;;;;;;;;;;;6.90;77.60;;;;;;5012587;28;117921;-77
2020/12/30 04:12:25;;;;;;;;;;;7.00;77.70;;;;;;4996391;28;117522;-77
2020/12/30 04:14:50;;;;;;;;;;;7.00;77.60;;;;;;4995195;28;117580;-77
2020/12/30 04:19:47;;;;;;;;;;;6.90;77.60;;;;;;5032110;27;117321;-81
2020/12/30 04:22:13;;;;;;;;;;;7.00;77.70;;;;;;5015667;28;117436;-81
2020/12/30 04:24:38;;;;;;;;;;;6.90;77.60;;;;;;4998425;28;120620;-81
2020/12/30 04:27:04;;;;;;;;;;;6.90;77.60;;;;;;5015142;28;117495;-81
2020/12/30 04:29:29;;;;;;;;;;;6.90;77.70;;;;;;5015492;28;117840;-81
2020/12/30 04:31:55;;;;;;;;;;;6.90;77.60;;;;;;5017398;28;117540;-81
2020/12/30 04:34:20;;;;;;;;;;;6.90;77.70;;;;;;4999645;28;119580;-81
2020/12/30 04:36:46;;;;;;;;;;;6.90;77.60;;;;;;5015799;28;117893;-81
2020/12/30 04:39:12;;;;;;;;;;;6.90;77.70;;;;;;5017423;28;117546;-81
2020/12/30 04:41:37;;;;;;;;;;;6.90;77.60;;;;;;5019129;28;117327;-81
2020/12/30 04:44:03;;;;;;;;;;;6.90;77.60;;;;;;5012173;28;117559;-82
2020/12/30 04:46:29;;;;;;;;;;;6.90;77.60;;;;;;5010694;28;120650;-82
2020/12/30 04:48:58;;;;;;;;;;;6.90;77.60;;;;;;5010376;28;117388;-82
2020/12/30 04:51:24;;;;;;;;;;;6.90;77.60;;;;;;5010525;28;117837;-81
2020/12/30 04:53:50;;;;;;;;;;;6.90;77.60;;;;;;5010534;28;117521;-81
2020/12/30 04:56:15;;;;;;;;;;;6.90;77.60;;;;;;5010308;28;117992;-81
2020/12/30 04:58:41;;;;;;;;;;;6.90;77.60;;;;;;4994003;28;117710;-81
2020/12/30 05:01:06;;;;;;;;;;;7.00;77.70;;;;;;5012444;28;117744;-81
2020/12/30 05:03:32;;;;;;;;;;;6.90;77.60;;;;;;4993885;28;118941;-81
2020/12/30 05:06:03;;;;;;;;;;;6.90;77.60;;;;;;5010802;28;120006;-81
2020/12/30 05:08:29;;;;;;;;;;;6.90;77.60;;;;;;5011648;27;117510;-81
2020/12/30 05:10:54;;;;;;;;;;;6.90;77.60;;;;;;5012221;28;117503;-81
2020/12/30 05:13:20;;;;;;;;;;;6.90;77.60;;;;;;4994881;28;120673;-81
2020/12/30 05:15:46;;;;;;;;;;;6.90;77.70;;;;;;5010715;28;120287;-81
2020/12/30 05:18:11;;;;;;;;;;;6.90;77.60;;;;;;4994898;28;117489;-81
2020/12/30 05:20:37;;;;;;;;;;;6.90;77.60;;;;;;5012674;28;117887;-81
2020/12/30 05:23:05;;;;;;;;;;;6.90;77.60;;;;;;5012055;28;119346;-81
2020/12/30 05:25:33;;;;;;;;;;;6.90;77.60;;;;;;4995164;28;117938;-81
2020/12/30 05:27:58;;;;;;;;;;;6.90;77.60;;;;;;5012355;28;117520;-81
2020/12/30 05:30:24;;;;;;;;;;;6.90;77.60;;;;;;5013213;28;117686;-81
2020/12/30 05:32:53;;;;;;;;;;;6.90;77.60;;;;;;5012280;28;120533;-81
2020/12/30 05:35:19;;;;;;;;;;;6.90;77.60;;;;;;5012737;28;119572;-81
2020/12/30 05:37:44;;;;;;;;;;;6.90;77.60;;;;;;5014212;28;117570;-81
2020/12/30 05:40:43;;;;;;;;;;;6.90;77.60;;;;;;5013856;28;117355;-81
2020/12/30 05:43:17;;;;;;;;;;;6.90;77.60;;;;;;4980328;28;118513;-81
2020/12/30 05:45:43;;;;;;;;;;;6.90;77.70;;;;;;5014010;28;120961;-81
2020/12/30 05:48:12;;;;;;;;;;;6.90;77.60;;;;;;5015268;28;117397;-81
2020/12/30 05:50:48;;;;;;;;;;;6.90;77.70;;;;;;4998133;28;117938;-81
2020/12/30 05:53:14;;;;;;;;;;;6.90;77.60;;;;;;5014639;28;119263;-81
2020/12/30 05:55:39;;;;;;;;;;;6.90;77.60;;;;;;5014967;28;118787;-81
2020/12/30 05:58:06;;;;;;;;;;;6.90;77.60;;;;;;5010567;28;117314;-81
2020/12/30 06:00:31;;;;;;;;;;;6.90;77.60;;;;;;4993784;28;117574;-81
2020/12/30 06:02:57;;;;;;;;;;;6.90;77.60;;;;;;5008863;28;119548;-81
2020/12/30 06:05:24;;;;;;;;;;;6.90;77.60;;;;;;4991725;28;119566;-81
2020/12/30 06:07:50;;;;;;;;;;;6.90;77.60;;;;;;5009436;28;117419;-81
2020/12/30 06:10:16;;;;;;;;;;;6.90;77.60;;;;;;5010483;28;117400;-81
2020/12/30 06:12:47;;;;;;;;;;;6.90;77.60;;;;;;5009579;28;117641;-81
2020/12/30 06:15:13;;;;;;;;;;;6.90;77.60;;;;;;5009428;28;120918;-81
2020/12/30 06:17:49;;;;;;;;;;;6.90;77.60;;;;;;5010597;28;117440;-81
2020/12/30 06:20:15;;;;;;;;;;;6.90;77.50;;;;;;4993785;28;117436;-81
2020/12/30 06:22:40;;;;;;;;;;;6.90;77.60;;;;;;5009778;28;119371;-81
2020/12/30 06:25:06;;;;;;;;;;;6.90;77.60;;;;;;5009309;28;118806;-81
2020/12/30 06:27:31;;;;;;;;;;;6.90;77.60;;;;;;5010920;28;117970;-81
2020/12/30 06:29:57;;;;;;;;;;;6.90;77.60;;;;;;5011661;28;117379;-81
2020/12/30 06:32:29;;;;;;;;;;;6.90;77.60;;;;;;5010728;28;117227;-81
2020/12/30 06:34:55;;;;;;;;;;;6.90;77.60;;;;;;5011711;28;117492;-81
2020/12/30 06:37:33;;;;;;;;;;;6.90;77.60;;;;;;5012480;28;117933;-81
2020/12/30 06:40:17;;;;;;;;;;;6.90;77.60;;;;;;5012735;28;117375;-81
2020/12/30 06:42:43;;;;;;;;;;;6.90;77.50;;;;;;5012492;28;120897;-81
2020/12/30 06:45:11;;;;;;;;;;;6.90;77.50;;;;;;5012386;28;119518;-81
2020/12/30 06:47:55;;;;;;;;;;;6.90;77.50;;;;;;5013635;28;117592;-81
2020/12/30 06:50:21;;;;;;;;;;;6.90;77.50;;;;;;5014205;28;118106;-81
2020/12/30 06:52:47;;;;;;;;;;;6.90;77.50;;;;;;5012950;28;117808;-81
2020/12/30 06:55:12;;;;;;;;;;;6.90;77.50;;;;;;5013149;28;119466;-81
2020/12/30 06:57:38;;;;;;;;;;;6.90;77.50;;;;;;4998091;28;117438;-81
2020/12/30 07:00:23;;;;;;;;;;;6.90;77.50;;;;;;4997929;28;117396;-81
2020/12/30 07:03:07;;;;;;;;;;;6.80;77.40;;;;;;5014707;28;120694;-81
2020/12/30 07:05:33;;;;;;;;;;;6.90;77.40;;;;;;5015166;28;120520;-81
2020/12/30 07:07:58;;;;;;;;;;;6.90;77.40;;;;;;4999078;28;117382;-81
2020/12/30 07:10:24;;;;;;;;;;;6.90;77.40;;;;;;5015846;28;117758;-81
2020/12/30 07:12:49;;;;;;;;;;;6.90;77.40;;;;;;4991774;28;117879;-81
2020/12/30 07:15:15;;;;;;;;;;;6.90;77.50;;;;;;4991881;28;118793;-81
2020/12/30 07:17:40;;;;;;;;;;;6.90;77.50;;;;;;5009113;28;117957;-81
2020/12/30 07:20:19;;;;;;;;;;;6.90;77.40;;;;;;4992556;28;117743;-81
2020/12/30 07:22:45;;;;;;;;;;;6.90;77.40;;;;;;5010370;28;118887;-81
2020/12/30 07:25:13;;;;;;;;;;;6.90;77.40;;;;;;5013137;28;118852;-81
2020/12/30 07:27:38;;;;;;;;;;;6.90;77.40;;;;;;5013507;28;117480;-81
2020/12/30 07:30:04;;;;;;;;;;;6.90;77.40;;;;;;4996189;28;117748;-81
2020/12/30 07:32:29;;;;;;;;;;;6.90;77.40;;;;;;4995387;28;119142;-81
2020/12/30 07:34:55;;;;;;;;;;;6.90;77.40;;;;;;4996026;28;120524;-81
2020/12/30 07:37:20;;;;;;;;;;;6.90;77.40;;;;;;4997402;28;117680;-81
2020/12/30 07:39:46;;;;;;;;;;;6.90;77.40;;;;;;5014005;28;117490;-81
2020/12/30 07:42:15;;;;;;;;;;;6.90;77.40;;;;;;5013417;28;117351;-81
2020/12/30 07:44:44;;;;;;;;;;;6.90;77.40;;;;;;4996710;28;117416;-81
2020/12/30 07:47:09;;;;;;;;;;;6.90;77.40;;;;;;5014606;28;117521;-81
2020/12/30 07:49:35;;;;;;;;;;;6.80;77.30;;;;;;5014856;28;117470;-81
2020/12/30 07:52:01;;;;;;;;;;;6.90;77.40;;;;;;4997489;28;118290;-81
2020/12/30 07:54:29;;;;;;;;;;;6.90;77.40;;;;;;5015339;28;117224;-81
2020/12/30 07:57:00;;;;;;;;;;;6.90;77.40;;;;;;4998917;28;117864;-81
2020/12/30 07:59:26;;;;;;;;;;;6.90;77.40;;;;;;5034841;28;117782;-81
2020/12/30 08:02:15;;;;;;;;;;;6.90;77.30;;;;;;4998608;28;119713;-81
2020/12/30 08:05:01;;;;;;;;;;;6.90;77.40;;;;;;5007939;28;118089;-81
2020/12/30 08:07:27;;;;;;;;;;;6.90;77.40;;;;;;5000145;28;117493;-81
2020/12/30 08:09:53;;;;;;;;;;;6.80;77.30;;;;;;5016604;28;117497;-81
2020/12/30 08:12:18;;;;;;;;;;;6.90;77.40;;;;;;4999524;28;117660;-80
2020/12/30 08:14:44;;;;;;;;;;;6.90;77.30;;;;;;5000138;28;120063;-80
2020/12/30 08:17:11;;;;;;;;;;;6.90;77.90;;;;;;5017966;28;117758;-80
2020/12/30 08:19:42;;;;;;;;;;;6.90;77.30;;;;;;5017835;28;117751;-81
2020/12/30 08:22:07;;;;;;;;;;;6.90;77.40;;;;;;5017455;28;118725;-81
2020/12/30 08:24:33;;;;;;;;;;;6.90;77.30;;;;;;5017278;28;118647;-81
2020/12/30 08:26:59;;;;;;;;;;;6.90;77.30;;;;;;5011977;28;117513;-81
2020/12/30 08:29:31;;;;;;;;;;;6.90;77.30;;;;;;4995633;28;117841;-81
2020/12/30 08:32:03;;;;;;;;;;;6.90;77.30;;;;;;5010718;28;120448;-81
2020/12/30 08:34:32;;;;;;;;;;;6.90;77.30;;;;;;5029392;27;117356;-81
2020/12/30 08:37:01;;;;;;;;;;;6.90;77.30;;;;;;5010829;28;117718;-81
2020/12/30 08:39:26;;;;;;;;;;;6.90;77.30;;;;;;5009736;28;117740;-82
2020/12/30 08:41:52;;;;;;;;;;;6.90;77.30;;;;;;4993158;28;120211;-82
2020/12/30 08:44:19;;;;;;;;;;;6.90;77.30;;;;;;4993098;28;117219;-82
2020/12/30 08:46:48;;;;;;;;;;;6.90;77.30;;;;;;5010273;28;117457;-82
2020/12/30 08:49:14;;;;;;;;;;;6.90;77.20;;;;;;5010799;28;117761;-82
2020/12/30 08:51:41;;;;;;;;;;;6.90;77.20;;;;;;4993330;28;118478;-82
2020/12/30 08:54:16;;;;;;;;;;;6.90;77.20;;;;;;4993586;28;118951;-82
2020/12/30 08:56:41;;;;;;;;;;;6.90;77.20;;;;;;4994158;28;117555;-82
2020/12/30 08:59:07;;;;;;;;;;;6.90;77.20;;;;;;5010619;28;117784;-82
2020/12/30 09:01:32;;;;;;;;;;;6.90;77.20;;;;;;4993242;28;118467;-82
2020/12/30 09:04:08;;;;;;;;;;;6.90;77.20;;;;;;4993145;28;119740;-82
2020/12/30 09:06:34;;;;;;;;;;;6.90;77.20;;;;;;5011936;28;117209;-82
2020/12/30 09:09:12;;;;;;;;;;;6.90;77.20;;;;;;5011518;28;117495;-82
2020/12/30 09:11:38;;;;;;;;;;;6.90;77.20;;;;;;5010726;28;117731;-82
2020/12/30 09:14:13;;;;;;;;;;;6.90;77.20;;;;;;5010922;28;118718;-82
2020/12/30 09:23:10;;;;;;;;;;;6.90;77.20;;;;;;5029794;28;117888;-82
2020/12/30 09:25:54;;;;;;;;;;;6.90;77.20;;;;;;4950542;28;117791;-82
2020/12/30 09:28:20;;;;;;;;;;;6.90;77.20;;;;;;4995967;28;117458;-82
2020/12/30 09:30:46;;;;;;;;;;;6.90;77.20;;;;;;5013381;28;117429;-82
2020/12/30 09:33:15;;;;;;;;;;;6.90;77.20;;;;;;4995332;28;121218;-82
2020/12/30 09:35:41;;;;;;;;;;;6.90;77.10;;;;;;5012300;28;120617;-82
2020/12/30 09:38:06;;;;;;;;;;;6.90;77.20;;;;;;4996944;28;117959;-82
2020/12/30 09:40:38;;;;;;;;;;;6.90;77.20;;;;;;4993031;28;117431;-82
2020/12/30 09:43:10;;;;;;;;;;;6.90;77.20;;;;;;4992070;28;119747;-82
2020/12/30 09:45:35;;;;;;;;;;;6.90;77.20;;;;;;4991440;28;118247;-82
2020/12/30 09:48:14;;;;;;;;;;;6.90;77.20;;;;;;5009303;28;117773;-82
2020/12/30 09:50:39;;;;;;;;;;;6.90;77.10;;;;;;5008730;28;117403;-82
2020/12/30 09:53:05;;;;;;;;;;;6.90;77.10;;;;;;4991965;28;119302;-82
2020/12/30 09:55:30;;;;;;;;;;;6.90;77.10;;;;;;4992026;28;117688;-82
2020/12/30 09:57:56;;;;;;;;;;;6.90;77.10;;;;;;4993152;28;117727;-82
2020/12/30 10:00:22;;;;;;;;;;;6.90;77.10;;;;;;4993355;28;117536;-82
2020/12/30 10:02:47;;;;;;;;;;;6.90;77.20;;;;;;4992161;28;120344;-82
2020/12/30 10:05:13;;;;;;;;;;;6.90;77.10;;;;;;4992108;28;118733;-82
2020/12/30 10:07:38;;;;;;;;;;;6.90;77.10;;;;;;4993053;28;117458;-82
2020/12/30 10:10:04;;;;;;;;;;;6.90;77.10;;;;;;4993032;28;117391;-82
2020/12/30 10:12:29;;;;;;;;;;;6.90;77.10;;;;;;4992260;28;117450;-82
2020/12/30 10:14:55;;;;;;;;;;;6.90;77.10;;;;;;4992116;28;117915;-82
2020/12/30 10:17:21;;;;;;;;;;;6.90;77.10;;;;;;4993301;28;117980;-82
2020/12/30 10:19:46;;;;;;;;;;;6.90;77.10;;;;;;5010333;28;117956;-82
2020/12/30 10:22:12;;;;;;;;;;;6.90;77.10;;;;;;4992464;28;117725;-82
2020/12/30 10:24:44;;;;;;;;;;;6.90;77.10;;;;;;4993051;28;119773;-82
2020/12/30 10:27:09;;;;;;;;;;;6.90;77.10;;;;;;4995528;28;117384;-82
2020/12/30 10:29:35;;;;;;;;;;;6.90;77.10;;;;;;5011181;28;117751;-82
2020/12/30 10:32:01;;;;;;;;;;;6.90;77.10;;;;;;4993613;28;121574;-82
2020/12/30 10:34:26;;;;;;;;;;;6.90;77.10;;;;;;5010773;28;117520;-82
2020/12/30 10:36:52;;;;;;;;;;;6.90;77.10;;;;;;5011906;28;117318;-82
2020/12/30 10:39:17;;;;;;;;;;;6.90;77.10;;;;;;4994147;28;117764;-82
2020/12/30 10:41:43;;;;;;;;;;;6.90;77.10;;;;;;5029154;28;117228;-82
2020/12/30 10:44:08;;;;;;;;;;;6.90;77.20;;;;;;4993974;28;118776;-82
2020/12/30 10:46:34;;;;;;;;;;;6.90;77.10;;;;;;5012262;28;117184;-82
2020/12/30 10:48:59;;;;;;;;;;;6.90;77.10;;;;;;4995394;28;117961;-82
2020/12/30 10:51:25;;;;;;;;;;;6.90;77.10;;;;;;5011881;28;118466;-82
2020/12/30 10:53:50;;;;;;;;;;;6.90;77.10;;;;;;5008557;28;118335;-82
2020/12/30 10:56:16;;;;;;;;;;;6.90;77.10;;;;;;5008663;28;117580;-82
2020/12/30 10:58:41;;;;;;;;;;;6.90;77.10;;;;;;4995291;27;117974;-82
2020/12/30 11:01:10;;;;;;;;;;;6.90;77.10;;;;;;4994580;28;118426;-82
2020/12/30 11:03:36;;;;;;;;;;;6.90;77.10;;;;;;5011210;28;117702;-82
2020/12/30 11:06:02;;;;;;;;;;;6.90;77.10;;;;;;4995638;28;117544;-82
2020/12/30 11:08:28;;;;;;;;;;;6.90;77.20;;;;;;4995693;27;117725;-82
2020/12/30 11:11:47;;;;;;;;;;;6.90;77.10;;;;;;4993157;28;119477;-84
2020/12/30 11:14:26;;;;;;;;;;;6.90;77.10;;;;;;4964048;28;118432;-84
2020/12/30 11:17:49;;;;;;;;;;;;;;;;;;;;;
2020/12/30 11:24:26;;;;;;;;;;;6.90;77.20;;;;;;4899267;28;117606;-84
2020/12/30 11:27:51;;;;;;;;;;;6.90;77.20;;;;;;4906365;28;117535;-84
2020/12/30 11:33:41;;;;;;;;;;;;;;;;;;;;;
2020/12/30 11:46:15;;;;;;;;;;;;;;;;;;;;;
2020/12/30 11:48:53;;;;;;;;;;;6.90;77.20;;;;;;4963240;28;145675;-85
2020/12/30 11:51:46;;;;;;;;;;;;;;;;;;;;;
2020/12/30 12:00:14;;;;;;;;;;;6.90;77.20;;;;;;5244462;22;118174;-86
2020/12/30 12:02:39;;;;;;;;;;;6.90;77.20;;;;;;4971963;28;119610;-86
2020/12/30 12:05:09;;;;;;;;;;;6.90;77.30;;;;;;4973681;28;117449;-86
2020/12/30 12:07:39;;;;;;;;;;;6.80;77.40;;;;;;4970126;28;117747;-86
2020/12/30 12:10:05;;;;;;;;;;;6.80;77.40;;;;;;4987194;28;118428;-86
2020/12/30 12:12:31;;;;;;;;;;;6.80;77.40;;;;;;4952989;28;119592;-86
2020/12/30 12:14:56;;;;;;;;;;;6.80;77.50;;;;;;4953654;28;117417;-86
2020/12/30 12:17:22;;;;;;;;;;;6.80;77.50;;;;;;4953778;28;117832;-86
2020/12/30 12:19:48;;;;;;;;;;;6.80;78.10;;;;;;4952913;28;121397;-86
2020/12/30 12:22:13;;;;;;;;;;;6.80;77.50;;;;;;4952758;28;120572;-86
2020/12/30 12:24:39;;;;;;;;;;;6.80;77.50;;;;;;4953247;28;117601;-86
2020/12/30 12:27:04;;;;;;;;;;;6.80;77.60;;;;;;4953030;28;117345;-86
2020/12/30 12:29:36;;;;;;;;;;;6.80;77.50;;;;;;4952318;28;120276;-86
2020/12/30 12:32:05;;;;;;;;;;;6.80;77.50;;;;;;4986769;28;117630;-85
2020/12/30 12:34:31;;;;;;;;;;;6.80;77.60;;;;;;4953012;28;117525;-85
2020/12/30 12:36:56;;;;;;;;;;;6.80;77.50;;;;;;4953519;28;117509;-85
2020/12/30 12:39:22;;;;;;;;;;;6.80;77.40;;;;;;4951915;28;120718;-85
2020/12/30 12:41:51;;;;;;;;;;;6.80;77.40;;;;;;4952003;28;119227;-85
2020/12/30 12:44:16;;;;;;;;;;;6.90;77.40;;;;;;4953028;28;117338;-85
2020/12/30 12:46:42;;;;;;;;;;;6.90;77.40;;;;;;4953291;28;117617;-85
2020/12/30 12:49:07;;;;;;;;;;;6.90;77.40;;;;;;4951328;28;127853;-85
2020/12/30 12:51:33;;;;;;;;;;;6.90;77.40;;;;;;4951298;28;118861;-85
2020/12/30 12:53:58;;;;;;;;;;;6.90;77.30;;;;;;4952935;28;117548;-85
2020/12/30 12:56:24;;;;;;;;;;;6.90;77.30;;;;;;4953313;28;117286;-85
2020/12/30 12:58:49;;;;;;;;;;;6.90;77.30;;;;;;4951606;28;120402;-85
2020/12/30 13:01:16;;;;;;;;;;;6.90;77.30;;;;;;4968132;28;118095;-85
2020/12/30 13:03:41;;;;;;;;;;;6.90;77.30;;;;;;4952928;28;117448;-85
2020/12/30 13:06:07;;;;;;;;;;;6.90;77.40;;;;;;4969679;28;117815;-85
2020/12/30 13:08:33;;;;;;;;;;;6.90;77.40;;;;;;4951843;28;122261;-86
2020/12/30 13:10:58;;;;;;;;;;;6.90;77.40;;;;;;4951808;28;117706;-88
2020/12/30 13:13:37;;;;;;;;;;;6.90;77.40;;;;;;4971000;28;117542;-87
2020/12/30 13:16:05;;;;;;;;;;;6.90;77.40;;;;;;4952473;28;117333;-87
2020/12/30 13:18:30;;;;;;;;;;;6.90;77.40;;;;;;4951775;28;121215;-87
2020/12/30 13:20:56;;;;;;;;;;;6.90;77.40;;;;;;4952211;28;119316;-87
2020/12/30 13:23:22;;;;;;;;;;;6.90;77.50;;;;;;4952723;28;117576;-87
2020/12/30 13:25:47;;;;;;;;;;;6.90;77.50;;;;;;4952995;28;117724;-87
2020/12/30 13:28:13;;;;;;;;;;;6.90;77.50;;;;;;4951270;28;120828;-87
2020/12/30 13:30:38;;;;;;;;;;;6.90;77.50;;;;;;4951472;28;119258;-87
2020/12/30 13:33:04;;;;;;;;;;;6.90;77.50;;;;;;4952732;28;117803;-87
2020/12/30 13:35:29;;;;;;;;;;;6.90;77.60;;;;;;4952595;28;117834;-87
2020/12/30 13:37:55;;;;;;;;;;;6.90;77.50;;;;;;4950867;28;120529;-87
2020/12/30 13:40:23;;;;;;;;;;;6.90;77.50;;;;;;4952817;28;120569;-87
2020/12/30 13:42:50;;;;;;;;;;;6.90;77.60;;;;;;4984382;28;117838;-87
2020/12/30 13:45:15;;;;;;;;;;;6.90;77.60;;;;;;4952235;28;117942;-87
2020/12/30 13:47:41;;;;;;;;;;;6.90;77.60;;;;;;4951005;28;121892;-87
2020/12/30 13:50:06;;;;;;;;;;;6.90;77.60;;;;;;4950810;28;119581;-87
2020/12/30 13:52:32;;;;;;;;;;;6.90;77.60;;;;;;4952001;28;117504;-87
2020/12/30 13:54:57;;;;;;;;;;;6.90;77.60;;;;;;4952115;28;117888;-87
2020/12/30 13:57:23;;;;;;;;;;;6.90;77.60;;;;;;4950713;28;121333;-87
2020/12/30 13:59:48;;;;;;;;;;;6.90;77.60;;;;;;4950369;28;120597;-87
2020/12/30 14:02:14;;;;;;;;;;;6.90;77.60;;;;;;4951507;28;117544;-87
2020/12/30 14:04:39;;;;;;;;;;;7.00;77.70;;;;;;4951559;28;117901;-87
2020/12/30 14:07:27;;;;;;;;;;;6.90;77.60;;;;;;4950962;28;120609;-88
2020/12/30 14:26:09;;;;;;;;;;;6.90;77.60;;;;;;4904731;28;117251;-90
2020/12/30 14:32:15;;;;;;;;;;;6.90;77.60;;;;;;4903898;28;117321;-90
2020/12/30 14:41:38;;;;;;;;;;;7.00;77.70;;;;;;4925051;28;117736;-90
2020/12/30 15:09:28;;;;;;;;;;;7.00;77.60;;;;;;4922637;28;117432;-90
2020/12/30 15:34:06;;;;;;;;;;;7.00;77.70;;;;;;4923207;28;117810;-90
2020/12/30 16:26:37;;;;;;;;;;;;;;;;;;;;;
2020/12/30 16:38:41;;;;;;;;;;;7.00;77.70;;;;;;4904483;28;117750;-90
2020/12/30 17:12:44;;;;;;;;;;;7.00;77.60;;;;;;4885895;28;117613;-90
2020/12/30 17:22:14;;;;;;;;;;;7.00;77.60;;;;;;4828550;29;117558;-90
2020/12/30 17:35:26;;;;;;;;;;;7.00;77.60;;;;;;4774540;29;118081;-90
2020/12/30 17:44:12;;;;;;;;;;;;;;;;;;;;;
2020/12/30 17:56:33;;;;;;;;;;;7.00;77.50;;;;;;4738326;29;118109;-90
2020/12/30 19:09:15;;;;;;;;;;;7.00;77.50;;;;;;5045002;22;118050;-85
2020/12/30 19:11:41;;;;;;;;;;;7.00;77.60;;;;;;4990013;28;117749;-85
2020/12/30 19:14:06;;;;;;;;;;;7.00;77.60;;;;;;4989154;28;118362;-85
2020/12/30 19:16:32;;;;;;;;;;;7.00;77.60;;;;;;4989182;28;117711;-85
2020/12/30 19:18:58;;;;;;;;;;;7.00;77.60;;;;;;4992161;28;117525;-85
2020/12/30 19:21:26;;;;;;;;;;;7.00;77.60;;;;;;4993877;28;117712;-85
2020/12/30 19:23:51;;;;;;;;;;;7.00;77.60;;;;;;4992973;28;120145;-85
2020/12/30 19:26:17;;;;;;;;;;;7.00;77.60;;;;;;4992922;28;120398;-85
2020/12/30 19:28:46;;;;;;;;;;;7.00;77.60;;;;;;5009998;27;117544;-85